Temp: 12.6°C   Baro: 1022.4mb
  Wind: 2.0mph   Dir: NE (54°)
  Rain: 0.0mm (0.0mm/hr)
  Solar: 0W/m2  Hum: 82%

Historic data

Bath Spa Weather Station Historical Data
Daily Summary for September 26, 2019 Units:  Both    English   Metric
Daily Weekly Monthly Yearly Custom
  High: Low: Average:
Temperature: 60.4 °F /  15.8 °C 42.6 °F /  5.9 °C 53.9 °F /  12.2 °C
Dew Point: 57.7 °F /  14.3 °C 41 °F /  5 °C 51.5 °F /  10.8 °C
Humidity: 94% 88% 92%
Wind Speed: 13.6mph /  21.9km/h - 6mph /  9.7km/h
Wind Gust: 28mph /  45.1km/h - -
Wind- - WSW
Pressure: 30.06 in /  1017.8 hPa 29.62 in /  1002.9 hPa -
Precipitation: 0.38 in /  9.65 mm    
Historical Graphs
 
 
Tabular Data for September 26, 2019
Time Temperature Dew Point Pressure Wind Wind Speed Wind Gust Humidity Rainfall Rate (Hourly) solar
00:04 60.3 °F /  15.7 °C 57.6 °F /  14.2 °C 29.70in /  1005.6hPa SW 13.1mph /  21.1km/h 23mph /  37km/h 91% 0.01in /  0.25mm 0 W/m2
00:09 60.3 °F /  15.7 °C 57.6 °F /  14.2 °C 29.70in /  1005.6hPa SW 11.6mph /  18.7km/h 26mph /  41.8km/h 91% 0.02in /  0.51mm 0 W/m2
00:14 60.3 °F /  15.7 °C 57.6 °F /  14.2 °C 29.70in /  1005.6hPa SW 13mph /  20.9km/h 28mph /  45.1km/h 91% 0.02in /  0.51mm 0 W/m2
00:19 60.3 °F /  15.7 °C 57.6 °F /  14.2 °C 29.70in /  1005.6hPa SW 11.6mph /  18.7km/h 23mph /  37km/h 91% 0.02in /  0.51mm 0 W/m2
00:24 60.3 °F /  15.7 °C 57.6 °F /  14.2 °C 29.70in /  1005.6hPa SW 11.9mph /  19.2km/h 22mph /  35.4km/h 91% 0.02in /  0.51mm 0 W/m2
00:29 60.3 °F /  15.7 °C 57.6 °F /  14.2 °C 29.70in /  1005.6hPa SW 11mph /  17.7km/h 20mph /  32.2km/h 91% 0.02in /  0.51mm 0 W/m2
00:34 60.3 °F /  15.7 °C 57.6 °F /  14.2 °C 29.71in /  1006hPa SW 11mph /  17.7km/h 23mph /  37km/h 91% 0.02in /  0.51mm 0 W/m2
00:39 60.3 °F /  15.7 °C 57.6 °F /  14.2 °C 29.70in /  1005.6hPa SW 10.2mph /  16.4km/h 19mph /  30.6km/h 91% 0.02in /  0.51mm 0 W/m2
00:44 60.3 °F /  15.7 °C 57.6 °F /  14.2 °C 29.70in /  1005.6hPa SW 11mph /  17.7km/h 26mph /  41.8km/h 91% 0.02in /  0.51mm 0 W/m2
00:49 60.3 °F /  15.7 °C 57.6 °F /  14.2 °C 29.70in /  1005.6hPa SW 10.6mph /  17.1km/h 22mph /  35.4km/h 91% 0.02in /  0.51mm 0 W/m2
00:54 60.1 °F /  15.6 °C 57.4 °F /  14.1 °C 29.70in /  1005.6hPa SW 9.8mph /  15.8km/h 22mph /  35.4km/h 91% 0.01in /  0.25mm 0 W/m2
00:59 60.3 °F /  15.7 °C 57.6 °F /  14.2 °C 29.70in /  1005.6hPa SW 11.3mph /  18.2km/h 22mph /  35.4km/h 91% 0.01in /  0.25mm 0 W/m2
01:04 60.3 °F /  15.7 °C 57.4 °F /  14.1 °C 29.71in /  1006hPa SW 9.5mph /  15.3km/h 22mph /  35.4km/h 90.2% 0.01in /  0.25mm 0 W/m2
01:09 60.3 °F /  15.7 °C 57.4 °F /  14.1 °C 29.71in /  1006hPa SW 11.4mph /  18.3km/h 22mph /  35.4km/h 90% 0.01in /  0.25mm 0 W/m2
01:14 60.3 °F /  15.7 °C 57.4 °F /  14.1 °C 29.70in /  1005.6hPa SW 8mph /  12.9km/h 21mph /  33.8km/h 90% 0.00in /  0mm 0 W/m2
01:19 60.3 °F /  15.7 °C 57.4 °F /  14.1 °C 29.70in /  1005.6hPa SW 10.3mph /  16.6km/h 19mph /  30.6km/h 90% 0.00in /  0mm 0 W/m2
01:24 60.3 °F /  15.7 °C 57.4 °F /  14.1 °C 29.70in /  1005.6hPa SW 8.8mph /  14.2km/h 19mph /  30.6km/h 90% 0.00in /  0mm 0 W/m2
01:29 60.3 °F /  15.7 °C 57.4 °F /  14.1 °C 29.70in /  1005.6hPa SW 10.8mph /  17.4km/h 19mph /  30.6km/h 90% 0.00in /  0mm 0 W/m2
01:34 60.3 °F /  15.7 °C 57.4 °F /  14.1 °C 29.70in /  1005.6hPa SSW 9.2mph /  14.8km/h 21mph /  33.8km/h 90.2% 0.00in /  0mm 0 W/m2
01:39 60.3 °F /  15.7 °C 57.5 °F /  14.2 °C 29.70in /  1005.6hPa SW 9.6mph /  15.4km/h 21mph /  33.8km/h 90.3% 0.00in /  0mm 0 W/m2
01:44 60.4 °F /  15.8 °C 57.5 °F /  14.2 °C 29.70in /  1005.6hPa SW 9.5mph /  15.3km/h 27mph /  43.5km/h 90% 0.00in /  0mm 0 W/m2
01:49 60.4 °F /  15.8 °C 57.5 °F /  14.2 °C 29.70in /  1005.6hPa SSW 8.6mph /  13.8km/h 18mph /  29km/h 90% 0.00in /  0mm 0 W/m2
01:54 60.4 °F /  15.8 °C 57.6 °F /  14.2 °C 29.70in /  1005.6hPa SW 10mph /  16.1km/h 19mph /  30.6km/h 90% 0.00in /  0mm 0 W/m2
01:59 60.4 °F /  15.8 °C 57.6 °F /  14.2 °C 29.70in /  1005.6hPa SW 10.5mph /  16.9km/h 22mph /  35.4km/h 90% 0.00in /  0mm 0 W/m2
02:04 60.4 °F /  15.8 °C 57.5 °F /  14.2 °C 29.70in /  1005.6hPa SW 8.9mph /  14.3km/h 20mph /  32.2km/h 90% 0.00in /  0mm 0 W/m2
02:09 60.3 °F /  15.7 °C 57.4 °F /  14.1 °C 29.70in /  1005.6hPa SW 9.7mph /  15.6km/h 20mph /  32.2km/h 90% 0.00in /  0mm 0 W/m2
02:14 60.2 °F /  15.7 °C 57.3 °F /  14.1 °C 29.70in /  1005.6hPa SSW 7.5mph /  12.1km/h 18mph /  29km/h 90.2% 0.00in /  0mm 0 W/m2
02:19 59.9 °F /  15.5 °C 57.2 °F /  14 °C 29.70in /  1005.6hPa SW 9.4mph /  15.1km/h 23mph /  37km/h 91% 0.00in /  0mm 0 W/m2
02:24 59.7 °F /  15.4 °C 57 °F /  13.9 °C 29.70in /  1005.6hPa SW 9.9mph /  15.9km/h 20mph /  32.2km/h 91% 0.01in /  0.25mm 0 W/m2
02:29 59.7 °F /  15.4 °C 57.1 °F /  13.9 °C 29.70in /  1005.6hPa SW 8.5mph /  13.7km/h 21mph /  33.8km/h 91.3% 0.01in /  0.25mm 0 W/m2
02:34 59.6 °F /  15.3 °C 57.3 °F /  14.1 °C 29.70in /  1005.6hPa SW 9.5mph /  15.3km/h 17mph /  27.4km/h 92% 0.01in /  0.25mm 0 W/m2
02:39 59.6 °F /  15.3 °C 57.3 °F /  14.1 °C 29.70in /  1005.6hPa SW 10.6mph /  17.1km/h 20mph /  32.2km/h 92% 0.01in /  0.25mm 0 W/m2
02:44 59.7 °F /  15.4 °C 57.4 °F /  14.1 °C 29.70in /  1005.6hPa SW 9.6mph /  15.4km/h 22mph /  35.4km/h 92% 0.02in /  0.51mm 0 W/m2
02:49 59.6 °F /  15.3 °C 57.3 °F /  14.1 °C 29.70in /  1005.6hPa SW 8.7mph /  14km/h 19mph /  30.6km/h 92% 0.02in /  0.51mm 0 W/m2
02:54 59.5 °F /  15.3 °C 57.2 °F /  14 °C 29.69in /  1005.3hPa SSW 9.2mph /  14.8km/h 19mph /  30.6km/h 92% 0.02in /  0.51mm 0 W/m2
02:59 59.5 °F /  15.3 °C 57.2 °F /  14 °C 29.69in /  1005.3hPa SSW 7mph /  11.3km/h 19mph /  30.6km/h 92% 0.02in /  0.51mm 0 W/m2
03:04 59.5 °F /  15.3 °C 57.2 °F /  14 °C 29.69in /  1005.3hPa SW 9.2mph /  14.8km/h 19mph /  30.6km/h 92% 0.03in /  0.76mm 0 W/m2
03:09 59.5 °F /  15.3 °C 57.2 °F /  14 °C 29.69in /  1005.3hPa SW 9mph /  14.5km/h 19mph /  30.6km/h 92% 0.03in /  0.76mm 0 W/m2
03:14 59.5 °F /  15.3 °C 57.2 °F /  14 °C 29.69in /  1005.3hPa SW 10.1mph /  16.3km/h 21mph /  33.8km/h 92.1% 0.03in /  0.76mm 0 W/m2
03:19 59.5 °F /  15.3 °C 57.2 °F /  14 °C 29.69in /  1005.3hPa SW 9mph /  14.5km/h 19mph /  30.6km/h 92% 0.04in /  1.02mm 0 W/m2
03:24 59.5 °F /  15.3 °C 57.2 °F /  14 °C 29.69in /  1005.3hPa SW 10.8mph /  17.4km/h 24mph /  38.6km/h 92% 0.04in /  1.02mm 0 W/m2
03:29 59.5 °F /  15.3 °C 57.2 °F /  14 °C 29.69in /  1005.3hPa SW 8.8mph /  14.2km/h 21mph /  33.8km/h 92% 0.03in /  0.76mm 0 W/m2
03:34 59.7 °F /  15.4 °C 57.4 °F /  14.1 °C 29.68in /  1005hPa SW 13.6mph /  21.9km/h 21mph /  33.8km/h 92% 0.03in /  0.76mm 0 W/m2
03:39 59.7 °F /  15.4 °C 57.4 °F /  14.1 °C 29.68in /  1005hPa SSW 10.4mph /  16.7km/h 20mph /  32.2km/h 92% 0.03in /  0.76mm 0 W/m2
03:44 59.7 °F /  15.4 °C 57.4 °F /  14.1 °C 29.68in /  1005hPa SSW 9.5mph /  15.3km/h 23mph /  37km/h 92% 0.03in /  0.76mm 0 W/m2
03:49 59.7 °F /  15.4 °C 57.4 °F /  14.1 °C 29.68in /  1005hPa SW 8.3mph /  13.4km/h 23mph /  37km/h 92% 0.03in /  0.76mm 0 W/m2
03:54 59.7 °F /  15.4 °C 57.4 °F /  14.1 °C 29.68in /  1005hPa SW 10.4mph /  16.7km/h 21mph /  33.8km/h 92% 0.03in /  0.76mm 0 W/m2
03:59 59.9 °F /  15.5 °C 57.2 °F /  14 °C 29.68in /  1005hPa SW 12mph /  19.3km/h 24mph /  38.6km/h 91% 0.02in /  0.51mm 0 W/m2
04:04 60.1 °F /  15.6 °C 57.4 °F /  14.1 °C 29.68in /  1005hPa SW 10.6mph /  17.1km/h 21mph /  33.8km/h 91% 0.02in /  0.51mm 0 W/m2
04:09 60.1 °F /  15.6 °C 57.4 °F /  14.1 °C 29.67in /  1004.6hPa SW 8mph /  12.9km/h 18mph /  29km/h 91% 0.02in /  0.51mm 0 W/m2
04:14 60.1 °F /  15.6 °C 57.2 °F /  14 °C 29.68in /  1005hPa SW 8.5mph /  13.7km/h 18mph /  29km/h 90% 0.02in /  0.51mm 0 W/m2
04:19 60.1 °F /  15.6 °C 57.2 °F /  14 °C 29.67in /  1004.6hPa SW 8.9mph /  14.3km/h 16mph /  25.7km/h 90% 0.02in /  0.51mm 0 W/m2
04:24 60.3 °F /  15.7 °C 57.4 °F /  14.1 °C 29.68in /  1005hPa SW 10.3mph /  16.6km/h 20mph /  32.2km/h 90% 0.01in /  0.25mm 0 W/m2
04:29 60.3 °F /  15.7 °C 57 °F /  13.9 °C 29.68in /  1005hPa SW 6.4mph /  10.3km/h 20mph /  32.2km/h 89.1% 0.01in /  0.25mm 0 W/m2
04:34 60.3 °F /  15.7 °C 57 °F /  13.9 °C 29.67in /  1004.6hPa SW 8.9mph /  14.3km/h 21mph /  33.8km/h 89% 0.01in /  0.25mm 0 W/m2
04:39 60.3 °F /  15.7 °C 57 °F /  13.9 °C 29.67in /  1004.6hPa SSW 8.8mph /  14.2km/h 19mph /  30.6km/h 89% 0.01in /  0.25mm 0 W/m2
04:44 60.3 °F /  15.7 °C 57 °F /  13.9 °C 29.68in /  1005hPa SW 8.7mph /  14km/h 16mph /  25.7km/h 89% 0.01in /  0.25mm 0 W/m2
04:49 60.3 °F /  15.7 °C 57 °F /  13.9 °C 29.67in /  1004.6hPa SSW 9.3mph /  15km/h 22mph /  35.4km/h 89% 0.00in /  0mm 0 W/m2
04:54 60.3 °F /  15.7 °C 57.1 °F /  13.9 °C 29.67in /  1004.6hPa SW 11.3mph /  18.2km/h 26mph /  41.8km/h 89% 0.00in /  0mm 0 W/m2
04:59 60.4 °F /  15.8 °C 57.2 °F /  14 °C 29.68in /  1005hPa SSW 9.9mph /  15.9km/h 25mph /  40.2km/h 89% 0.00in /  0mm 0 W/m2
05:04 60.4 °F /  15.8 °C 57.1 °F /  13.9 °C 29.67in /  1004.6hPa SW 7.3mph /  11.7km/h 19mph /  30.6km/h 89% 0.00in /  0mm 0 W/m2
05:09 60.3 °F /  15.7 °C 57 °F /  13.9 °C 29.67in /  1004.6hPa SSW 8.8mph /  14.2km/h 17mph /  27.4km/h 89% 0.00in /  0mm 0 W/m2
05:14 60.3 °F /  15.7 °C 57 °F /  13.9 °C 29.67in /  1004.6hPa SSW 9.3mph /  15km/h 19mph /  30.6km/h 89% 0.00in /  0mm 0 W/m2
05:19 60.3 °F /  15.7 °C 57 °F /  13.9 °C 29.67in /  1004.6hPa SW 7.8mph /  12.6km/h 20mph /  32.2km/h 89% 0.00in /  0mm 0 W/m2
05:24 60.3 °F /  15.7 °C 57 °F /  13.9 °C 29.67in /  1004.6hPa SSW 9.1mph /  14.6km/h 17mph /  27.4km/h 89% 0.00in /  0mm 0 W/m2
05:29 60.1 °F /  15.6 °C 56.8 °F /  13.8 °C 29.67in /  1004.6hPa SSW 8.7mph /  14km/h 16mph /  25.7km/h 89% 0.00in /  0mm 0 W/m2
05:34 60.3 °F /  15.7 °C 57 °F /  13.9 °C 29.67in /  1004.6hPa SSW 8.5mph /  13.7km/h 21mph /  33.8km/h 89% 0.00in /  0mm 0 W/m2
05:39 60.3 °F /  15.7 °C 57 °F /  13.9 °C 29.67in /  1004.6hPa SSW 9.9mph /  15.9km/h 19mph /  30.6km/h 89% 0.00in /  0mm 0 W/m2
05:44 60.3 °F /  15.7 °C 57 °F /  13.9 °C 29.67in /  1004.6hPa SSW 6mph /  9.7km/h 20mph /  32.2km/h 89% 0.00in /  0mm 0 W/m2
05:49 60.3 °F /  15.7 °C 57 °F /  13.9 °C 29.67in /  1004.6hPa SSW 6mph /  9.7km/h 16mph /  25.7km/h 89% 0.00in /  0mm 0 W/m2
05:54 60.3 °F /  15.7 °C 57 °F /  13.9 °C 29.67in /  1004.6hPa SW 9.4mph /  15.1km/h 21mph /  33.8km/h 89% 0.00in /  0mm 0 W/m2
05:59 60.4 °F /  15.8 °C 57 °F /  13.9 °C 29.67in /  1004.6hPa SW 8.3mph /  13.4km/h 21mph /  33.8km/h 88.5% 0.00in /  0mm 0 W/m2
06:04 60.4 °F /  15.8 °C 56.8 °F /  13.8 °C 29.67in /  1004.6hPa SW 8.1mph /  13km/h 17mph /  27.4km/h 88% 0.00in /  0mm 0 W/m2
06:09 60.3 °F /  15.7 °C 56.8 °F /  13.8 °C 29.67in /  1004.6hPa SW 8.3mph /  13.4km/h 17mph /  27.4km/h 88.4% 0.00in /  0mm 0 W/m2
06:14 60.3 °F /  15.7 °C 57 °F /  13.9 °C 29.67in /  1004.6hPa SW 10.9mph /  17.5km/h 19mph /  30.6km/h 89% 0.00in /  0mm 0 W/m2
06:19 60.3 °F /  15.7 °C 57 °F /  13.9 °C 29.67in /  1004.6hPa SW 9.5mph /  15.3km/h 22mph /  35.4km/h 89% 0.00in /  0mm 0 W/m2
06:24 60.2 °F /  15.7 °C 56.9 °F /  13.8 °C 29.67in /  1004.6hPa SW 8.4mph /  13.5km/h 18mph /  29km/h 89% 0.00in /  0mm 0 W/m2
06:29 60.1 °F /  15.6 °C 56.8 °F /  13.8 °C 29.67in /  1004.6hPa SW 8.7mph /  14km/h 23mph /  37km/h 89% 0.00in /  0mm 0 W/m2
06:34 60.1 °F /  15.6 °C 56.8 °F /  13.8 °C 29.67in /  1004.6hPa SW 6.2mph /  10km/h 15mph /  24.1km/h 89% 0.00in /  0mm 0 W/m2
06:39 60.1 °F /  15.6 °C 56.8 °F /  13.8 °C 29.67in /  1004.6hPa SW 6.5mph /  10.5km/h 21mph /  33.8km/h 89% 0.00in /  0mm 0 W/m2
06:44 60.1 °F /  15.6 °C 56.8 °F /  13.8 °C 29.67in /  1004.6hPa SW 7.7mph /  12.4km/h 15mph /  24.1km/h 89% 0.00in /  0mm 0 W/m2
06:49 60.1 °F /  15.6 °C 56.8 °F /  13.8 °C 29.67in /  1004.6hPa SW 7.2mph /  11.6km/h 14mph /  22.5km/h 89% 0.00in /  0mm 0 W/m2
06:54 60.2 °F /  15.7 °C 56.9 °F /  13.8 °C 29.67in /  1004.6hPa SW 9.4mph /  15.1km/h 16mph /  25.7km/h 89% 0.00in /  0mm 0 W/m2
06:59 60.2 °F /  15.7 °C 56.9 °F /  13.8 °C 29.67in /  1004.6hPa SW 8mph /  12.9km/h 16mph /  25.7km/h 89% 0.00in /  0mm 0 W/m2
07:04 60.2 °F /  15.7 °C 56.9 °F /  13.8 °C 29.67in /  1004.6hPa SW 8.9mph /  14.3km/h 18mph /  29km/h 89% 0.00in /  0mm 0 W/m2
07:09 60.2 °F /  15.7 °C 56.9 °F /  13.8 °C 29.67in /  1004.6hPa SW 8.5mph /  13.7km/h 20mph /  32.2km/h 89% 0.00in /  0mm 0 W/m2
07:14 60.1 °F /  15.6 °C 56.8 °F /  13.8 °C 29.67in /  1004.6hPa SW 8.5mph /  13.7km/h 20mph /  32.2km/h 89% 0.00in /  0mm 0 W/m2
07:19 60.1 °F /  15.6 °C 56.8 °F /  13.8 °C 29.67in /  1004.6hPa SW 7.5mph /  12.1km/h 21mph /  33.8km/h 89% 0.00in /  0mm 0 W/m2
07:24 60 °F /  15.6 °C 56.8 °F /  13.8 °C 29.67in /  1004.6hPa SW 9.1mph /  14.6km/h 24mph /  38.6km/h 89% 0.00in /  0mm 0 W/m2
07:29 59.9 °F /  15.5 °C 56.7 °F /  13.7 °C 29.66in /  1004.3hPa SW 7.8mph /  12.6km/h 14mph /  22.5km/h 89% 0.00in /  0mm 0 W/m2
07:34 59.8 °F /  15.4 °C 56.7 °F /  13.7 °C 29.67in /  1004.6hPa SW 7.5mph /  12.1km/h 18mph /  29km/h 89.5% 0.00in /  0mm 0 W/m2
07:39 59.7 °F /  15.4 °C 56.8 °F /  13.8 °C 29.67in /  1004.6hPa SW 9.2mph /  14.8km/h 16mph /  25.7km/h 90% 0.00in /  0mm 0 W/m2
07:44 59.9 °F /  15.5 °C 57 °F /  13.9 °C 29.67in /  1004.6hPa SW 8mph /  12.9km/h 17mph /  27.4km/h 89.9% 0.00in /  0mm 0 W/m2
07:49 59.8 °F /  15.4 °C 56.7 °F /  13.7 °C 29.67in /  1004.6hPa SW 10.1mph /  16.3km/h 19mph /  30.6km/h 89.1% 0.00in /  0mm 0 W/m2
07:54 60 °F /  15.6 °C 56.7 °F /  13.7 °C 29.67in /  1004.6hPa SW 9mph /  14.5km/h 19mph /  30.6km/h 89% 0.00in /  0mm 0 W/m2
07:59 60 °F /  15.6 °C 56.7 °F /  13.7 °C 29.67in /  1004.6hPa SW 9.4mph /  15.1km/h 18mph /  29km/h 89% 0.00in /  0mm 0 W/m2
08:04 60 °F /  15.6 °C 56.8 °F /  13.8 °C 29.67in /  1004.6hPa SW 9.3mph /  15km/h 19mph /  30.6km/h 89% 0.00in /  0mm 0 W/m2
08:09 60 °F /  15.6 °C 56.8 °F /  13.8 °C 29.67in /  1004.6hPa SW 8.7mph /  14km/h 17mph /  27.4km/h 89% 0.00in /  0mm 0 W/m2
08:14 60.1 °F /  15.6 °C 56.5 °F /  13.6 °C 29.67in /  1004.6hPa SW 8.7mph /  14km/h 19mph /  30.6km/h 88% 0.00in /  0mm 0 W/m2
08:19 60.1 °F /  15.6 °C 56.5 °F /  13.6 °C 29.67in /  1004.6hPa SW 11.3mph /  18.2km/h 21mph /  33.8km/h 88% 0.00in /  0mm 0 W/m2
08:24 60.1 °F /  15.6 °C 56.5 °F /  13.6 °C 29.67in /  1004.6hPa SW 6.5mph /  10.5km/h 15mph /  24.1km/h 88% 0.01in /  0.25mm 0 W/m2
08:29 60 °F /  15.6 °C 56.4 °F /  13.6 °C 29.66in /  1004.3hPa SW 8.5mph /  13.7km/h 19mph /  30.6km/h 88% 0.01in /  0.25mm 5 W/m2
08:34 59.7 °F /  15.4 °C 56.3 °F /  13.5 °C 29.66in /  1004.3hPa SW 8.4mph /  13.5km/h 22mph /  35.4km/h 88.4% 0.01in /  0.25mm 7 W/m2
08:39 59.6 °F /  15.3 °C 56.4 °F /  13.6 °C 29.67in /  1004.6hPa SW 7.3mph /  11.7km/h 17mph /  27.4km/h 89% 0.01in /  0.25mm 7 W/m2
08:44 59.6 °F /  15.3 °C 56.4 °F /  13.6 °C 29.67in /  1004.6hPa SW 9.5mph /  15.3km/h 20mph /  32.2km/h 89% 0.01in /  0.25mm 7 W/m2
08:49 59.5 °F /  15.3 °C 56.3 °F /  13.5 °C 29.67in /  1004.6hPa SW 7.8mph /  12.6km/h 16mph /  25.7km/h 89% 0.01in /  0.25mm 7 W/m2
08:54 59.5 °F /  15.3 °C 56.3 °F /  13.5 °C 29.67in /  1004.6hPa SW 10.7mph /  17.2km/h 21mph /  33.8km/h 89% 0.01in /  0.25mm 0 W/m2
08:59 59.5 °F /  15.3 °C 56.3 °F /  13.5 °C 29.67in /  1004.6hPa SW 7.9mph /  12.7km/h 21mph /  33.8km/h 89% 0.01in /  0.25mm 7 W/m2
09:04 59.6 °F /  15.3 °C 56.4 °F /  13.6 °C 29.67in /  1004.6hPa SW 10.6mph /  17.1km/h 18mph /  29km/h 89% 0.01in /  0.25mm 9 W/m2
09:09 59.7 °F /  15.4 °C 56.5 °F /  13.6 °C 29.67in /  1004.6hPa SW 7.3mph /  11.7km/h 19mph /  30.6km/h 89% 0.01in /  0.25mm 7 W/m2
09:14 59.6 °F /  15.3 °C 56.4 °F /  13.6 °C 29.67in /  1004.6hPa SW 9mph /  14.5km/h 20mph /  32.2km/h 89% 0.02in /  0.51mm 19 W/m2
09:19 59.5 °F /  15.3 °C 56.3 °F /  13.5 °C 29.67in /  1004.6hPa SW 6.5mph /  10.5km/h 16mph /  25.7km/h 89% 0.02in /  0.51mm 19 W/m2
09:24 59.4 °F /  15.2 °C 56.2 °F /  13.4 °C 29.67in /  1004.6hPa SW 5.9mph /  9.5km/h 16mph /  25.7km/h 89.1% 0.02in /  0.51mm 26 W/m2
09:29 59.4 °F /  15.2 °C 56.5 °F /  13.6 °C 29.67in /  1004.6hPa SW 7.2mph /  11.6km/h 16mph /  25.7km/h 90% 0.02in /  0.51mm 21 W/m2
09:34 59.2 °F /  15.1 °C 56.3 °F /  13.5 °C 29.67in /  1004.6hPa SSW 6.7mph /  10.8km/h 14mph /  22.5km/h 90% 0.03in /  0.76mm 16 W/m2
09:39 59.2 °F /  15.1 °C 56.4 °F /  13.6 °C 29.67in /  1004.6hPa SW 6.8mph /  10.9km/h 14mph /  22.5km/h 90.6% 0.04in /  1.02mm 19 W/m2
09:44 59.2 °F /  15.1 °C 56.5 °F /  13.6 °C 29.66in /  1004.3hPa SSW 6.3mph /  10.1km/h 13mph /  20.9km/h 90.8% 0.04in /  1.02mm 30 W/m2
09:49 59.2 °F /  15.1 °C 56.5 °F /  13.6 °C 29.66in /  1004.3hPa SSW 7.3mph /  11.7km/h 13mph /  20.9km/h 91% 0.04in /  1.02mm 33 W/m2
09:54 59.2 °F /  15.1 °C 56.5 °F /  13.6 °C 29.66in /  1004.3hPa SSW 7.4mph /  11.9km/h 14mph /  22.5km/h 91% 0.05in /  1.27mm 21 W/m2
09:59 59.2 °F /  15.1 °C 56.5 °F /  13.6 °C 29.66in /  1004.3hPa SW 7.6mph /  12.2km/h 16mph /  25.7km/h 91% 0.05in /  1.27mm 26 W/m2
10:04 59.3 °F /  15.2 °C 56.6 °F /  13.7 °C 29.66in /  1004.3hPa SSW 8.8mph /  14.2km/h 22mph /  35.4km/h 91% 0.05in /  1.27mm 32 W/m2
10:09 59.3 °F /  15.2 °C 56.6 °F /  13.7 °C 29.66in /  1004.3hPa SW 10.3mph /  16.6km/h 21mph /  33.8km/h 91% 0.05in /  1.27mm 35 W/m2
10:14 59.3 °F /  15.2 °C 56.6 °F /  13.7 °C 29.65in /  1003.9hPa SW 8.6mph /  13.8km/h 19mph /  30.6km/h 91% 0.06in /  1.52mm 30 W/m2
10:19 59.3 °F /  15.2 °C 56.6 °F /  13.7 °C 29.65in /  1003.9hPa SW 8mph /  12.9km/h 20mph /  32.2km/h 91% 0.05in /  1.27mm 37 W/m2
10:24 59.2 °F /  15.1 °C 56.5 °F /  13.6 °C 29.65in /  1003.9hPa SW 7.5mph /  12.1km/h 17mph /  27.4km/h 91% 0.04in /  1.02mm 51 W/m2
10:29 59.2 °F /  15.1 °C 56.5 °F /  13.6 °C 29.65in /  1003.9hPa SW 8.8mph /  14.2km/h 16mph /  25.7km/h 91% 0.04in /  1.02mm 63 W/m2
10:34 59.2 °F /  15.1 °C 56.5 °F /  13.6 °C 29.65in /  1003.9hPa SW 9.1mph /  14.6km/h 17mph /  27.4km/h 91% 0.04in /  1.02mm 79 W/m2
10:39 59 °F /  15 °C 56.3 °F /  13.5 °C 29.65in /  1003.9hPa SSW 7.4mph /  11.9km/h 21mph /  33.8km/h 91% 0.04in /  1.02mm 81 W/m2
10:44 58.8 °F /  14.9 °C 56.5 °F /  13.6 °C 29.65in /  1003.9hPa SSW 9mph /  14.5km/h 21mph /  33.8km/h 91.9% 0.04in /  1.02mm 70 W/m2
10:49 58.9 °F /  14.9 °C 56.6 °F /  13.7 °C 29.65in /  1003.9hPa SW 8.4mph /  13.5km/h 19mph /  30.6km/h 92% 0.04in /  1.02mm 54 W/m2
10:54 59 °F /  15 °C 56.7 °F /  13.7 °C 29.65in /  1003.9hPa SSW 7.8mph /  12.6km/h 15mph /  24.1km/h 92% 0.05in /  1.27mm 47 W/m2
10:59 59 °F /  15 °C 56.7 °F /  13.7 °C 29.65in /  1003.9hPa SSW 7.5mph /  12.1km/h 15mph /  24.1km/h 92% 0.05in /  1.27mm 35 W/m2
11:04 59 °F /  15 °C 56.7 °F /  13.7 °C 29.65in /  1003.9hPa SW 10.5mph /  16.9km/h 18mph /  29km/h 92% 0.06in /  1.52mm 23 W/m2
11:09 59 °F /  15 °C 56.7 °F /  13.7 °C 29.65in /  1003.9hPa SSW 10.8mph /  17.4km/h 24mph /  38.6km/h 92% 0.06in /  1.52mm 32 W/m2
11:14 59 °F /  15 °C 56.7 °F /  13.7 °C 29.65in /  1003.9hPa SW 11.1mph /  17.9km/h 24mph /  38.6km/h 92% 0.06in /  1.52mm 42 W/m2
11:19 58.9 °F /  14.9 °C 56.6 °F /  13.7 °C 29.65in /  1003.9hPa SW 7.3mph /  11.7km/h 19mph /  30.6km/h 92% 0.07in /  1.78mm 42 W/m2
11:24 58.8 °F /  14.9 °C 56.5 °F /  13.6 °C 29.65in /  1003.9hPa SW 8.8mph /  14.2km/h 18mph /  29km/h 92% 0.08in /  2.03mm 40 W/m2
11:29 58.9 °F /  14.9 °C 56.6 °F /  13.7 °C 29.65in /  1003.9hPa SW 9.7mph /  15.6km/h 18mph /  29km/h 92% 0.08in /  2.03mm 37 W/m2
11:34 59 °F /  15 °C 56.7 °F /  13.7 °C 29.65in /  1003.9hPa SSW 8.2mph /  13.2km/h 18mph /  29km/h 92% 0.09in /  2.29mm 37 W/m2
11:39 59 °F /  15 °C 56.7 °F /  13.7 °C 29.64in /  1003.6hPa SSW 8.4mph /  13.5km/h 17mph /  27.4km/h 92% 0.09in /  2.29mm 35 W/m2
11:44 59.1 °F /  15.1 °C 56.8 °F /  13.8 °C 29.64in /  1003.6hPa SW 10.3mph /  16.6km/h 20mph /  32.2km/h 92% 0.08in /  2.03mm 37 W/m2
11:49 59.2 °F /  15.1 °C 56.8 °F /  13.8 °C 29.64in /  1003.6hPa SW 10mph /  16.1km/h 27mph /  43.5km/h 92% 0.09in /  2.29mm 44 W/m2
11:54 59.2 °F /  15.1 °C 56.8 °F /  13.8 °C 29.64in /  1003.6hPa SW 8.9mph /  14.3km/h 16mph /  25.7km/h 92% 0.08in /  2.03mm 42 W/m2
11:59 59.2 °F /  15.1 °C 56.8 °F /  13.8 °C 29.64in /  1003.6hPa SW 7.6mph /  12.2km/h 18mph /  29km/h 92% 0.09in /  2.29mm 39 W/m2
12:04 59.2 °F /  15.1 °C 56.8 °F /  13.8 °C 29.64in /  1003.6hPa SW 6.9mph /  11.1km/h 18mph /  29km/h 92% 0.09in /  2.29mm 37 W/m2
12:09 59.2 °F /  15.1 °C 56.8 °F /  13.8 °C 29.64in /  1003.6hPa SW 8.8mph /  14.2km/h 18mph /  29km/h 92% 0.08in /  2.03mm 37 W/m2
12:14 59.3 °F /  15.2 °C 56.9 °F /  13.8 °C 29.64in /  1003.6hPa SW 8.3mph /  13.4km/h 21mph /  33.8km/h 92% 0.08in /  2.03mm 37 W/m2
12:19 59.4 °F /  15.2 °C 57 °F /  13.9 °C 29.64in /  1003.6hPa SW 9.5mph /  15.3km/h 17mph /  27.4km/h 92% 0.07in /  1.78mm 30 W/m2
12:24 59.4 °F /  15.2 °C 57 °F /  13.9 °C 29.64in /  1003.6hPa SW 7.2mph /  11.6km/h 16mph /  25.7km/h 92% 0.07in /  1.78mm 44 W/m2
12:29 59.4 °F /  15.2 °C 57 °F /  13.9 °C 29.64in /  1003.6hPa SSW 7.3mph /  11.7km/h 17mph /  27.4km/h 92% 0.07in /  1.78mm 39 W/m2
12:34 59.4 °F /  15.2 °C 57 °F /  13.9 °C 29.64in /  1003.6hPa SSW 7.2mph /  11.6km/h 19mph /  30.6km/h 92% 0.06in /  1.52mm 46 W/m2
12:39 59.4 °F /  15.2 °C 57 °F /  13.9 °C 29.63in /  1003.3hPa SW 8.6mph /  13.8km/h 18mph /  29km/h 92% 0.06in /  1.52mm 44 W/m2
12:44 59.5 °F /  15.3 °C 57.2 °F /  14 °C 29.63in /  1003.3hPa SW 9mph /  14.5km/h 20mph /  32.2km/h 92% 0.06in /  1.52mm 42 W/m2
12:49 59.5 °F /  15.3 °C 57.2 °F /  14 °C 29.63in /  1003.3hPa SW 8.8mph /  14.2km/h 19mph /  30.6km/h 92% 0.07in /  1.78mm 32 W/m2
12:54 59.5 °F /  15.3 °C 57.2 °F /  14 °C 29.63in /  1003.3hPa SW 9.2mph /  14.8km/h 16mph /  25.7km/h 92% 0.07in /  1.78mm 37 W/m2
12:59 59.5 °F /  15.3 °C 57.2 °F /  14 °C 29.63in /  1003.3hPa SSW 6.6mph /  10.6km/h 16mph /  25.7km/h 92% 0.07in /  1.78mm 28 W/m2
13:04 59.5 °F /  15.3 °C 57.2 °F /  14 °C 29.63in /  1003.3hPa SW 10.1mph /  16.3km/h 21mph /  33.8km/h 92% 0.07in /  1.78mm 32 W/m2
13:09 59.7 °F /  15.4 °C 57.4 °F /  14.1 °C 29.63in /  1003.3hPa SW 6.9mph /  11.1km/h 21mph /  33.8km/h 92% 0.06in /  1.52mm 26 W/m2
13:14 59.7 °F /  15.4 °C 57.4 °F /  14.1 °C 29.63in /  1003.3hPa SW 6.4mph /  10.3km/h 12mph /  19.3km/h 92% 0.07in /  1.78mm 28 W/m2
13:19 59.7 °F /  15.4 °C 57.4 °F /  14.1 °C 29.63in /  1003.3hPa SW 10.6mph /  17.1km/h 21mph /  33.8km/h 92% 0.07in /  1.78mm 28 W/m2
13:24 59.7 °F /  15.4 °C 57.4 °F /  14.1 °C 29.63in /  1003.3hPa SW 9.8mph /  15.8km/h 21mph /  33.8km/h 92% 0.07in /  1.78mm 33 W/m2
13:29 59.9 °F /  15.5 °C 57.6 °F /  14.2 °C 29.63in /  1003.3hPa SW 6.5mph /  10.5km/h 19mph /  30.6km/h 92% 0.07in /  1.78mm 21 W/m2
13:34 59.9 °F /  15.5 °C 57.6 °F /  14.2 °C 29.63in /  1003.3hPa SW 10.6mph /  17.1km/h 20mph /  32.2km/h 92% 0.06in /  1.52mm 30 W/m2
13:39 59.9 °F /  15.5 °C 57.6 °F /  14.2 °C 29.62in /  1002.9hPa SW 6.6mph /  10.6km/h 16mph /  25.7km/h 92% 0.06in /  1.52mm 35 W/m2
13:44 60 °F /  15.6 °C 57.6 °F /  14.2 °C 29.63in /  1003.3hPa SW 8.7mph /  14km/h 15mph /  24.1km/h 92% 0.06in /  1.52mm 32 W/m2
13:49 60.1 °F /  15.6 °C 57.7 °F /  14.3 °C 29.63in /  1003.3hPa WSW 9.1mph /  14.6km/h 20mph /  32.2km/h 92% 0.06in /  1.52mm 26 W/m2
13:54 60 °F /  15.6 °C 57.7 °F /  14.3 °C 29.63in /  1003.3hPa SW 7.7mph /  12.4km/h 14mph /  22.5km/h 92% 0.05in /  1.27mm 14 W/m2
13:59 59.9 °F /  15.5 °C 57.6 °F /  14.2 °C 29.63in /  1003.3hPa WSW 9.6mph /  15.4km/h 19mph /  30.6km/h 92% 0.04in /  1.02mm 16 W/m2
14:04 59.9 °F /  15.5 °C 57.6 °F /  14.2 °C 29.64in /  1003.6hPa WSW 8.4mph /  13.5km/h 19mph /  30.6km/h 92% 0.04in /  1.02mm 25 W/m2
14:09 59.8 °F /  15.4 °C 57.5 °F /  14.2 °C 29.63in /  1003.3hPa WSW 5.8mph /  9.3km/h 14mph /  22.5km/h 92% 0.03in /  0.76mm 40 W/m2
14:14 59.7 °F /  15.4 °C 57.5 °F /  14.2 °C 29.63in /  1003.3hPa WSW 7.4mph /  11.9km/h 14mph /  22.5km/h 92.3% 0.02in /  0.51mm 44 W/m2
14:19 59.7 °F /  15.4 °C 57.7 °F /  14.3 °C 29.64in /  1003.6hPa SW 8.3mph /  13.4km/h 15mph /  24.1km/h 93% 0.02in /  0.51mm 39 W/m2
14:24 59.7 °F /  15.4 °C 57.7 °F /  14.3 °C 29.64in /  1003.6hPa WSW 6.6mph /  10.6km/h 15mph /  24.1km/h 93% 0.02in /  0.51mm 39 W/m2
14:29 59.7 °F /  15.4 °C 57.7 °F /  14.3 °C 29.64in /  1003.6hPa WSW 4.2mph /  6.8km/h 13mph /  20.9km/h 93% 0.01in /  0.25mm 37 W/m2
14:34 58.8 °F /  14.9 °C 56.8 °F /  13.8 °C 29.64in /  1003.6hPa NW 8.7mph /  14km/h 15mph /  24.1km/h 92.9% 0.02in /  0.51mm 14 W/m2
14:39 56.5 °F /  13.6 °C 54.3 °F /  12.4 °C 29.65in /  1003.9hPa NNW 9mph /  14.5km/h 17mph /  27.4km/h 92.5% 0.01in /  0.25mm 18 W/m2
14:44 53.5 °F /  11.9 °C 51.1 °F /  10.6 °C 29.65in /  1003.9hPa North 11.1mph /  17.9km/h 20mph /  32.2km/h 92% 0.02in /  0.51mm 33 W/m2
14:49 50 °F /  10 °C 47.9 °F /  8.8 °C 29.66in /  1004.3hPa NNW 8.4mph /  13.5km/h 18mph /  29km/h 92% 0.02in /  0.51mm 32 W/m2
14:54 48.7 °F /  9.3 °C 46.5 °F /  8.1 °C 29.67in /  1004.6hPa NNW 7.5mph /  12.1km/h 21mph /  33.8km/h 92% 0.02in /  0.51mm 39 W/m2
14:59 47.7 °F /  8.7 °C 45.5 °F /  7.5 °C 29.67in /  1004.6hPa North 8.1mph /  13km/h 21mph /  33.8km/h 92% 0.02in /  0.51mm 40 W/m2
15:04 47.1 °F /  8.4 °C 44.9 °F /  7.2 °C 29.68in /  1005hPa North 7.9mph /  12.7km/h 17mph /  27.4km/h 92% 0.02in /  0.51mm 39 W/m2
15:09 46.8 °F /  8.2 °C 44.6 °F /  7 °C 29.69in /  1005.3hPa North 4.4mph /  7.1km/h 16mph /  25.7km/h 92% 0.02in /  0.51mm 35 W/m2
15:14 46.7 °F /  8.2 °C 44.5 °F /  6.9 °C 29.69in /  1005.3hPa NNE 2.4mph /  3.9km/h 10mph /  16.1km/h 92% 0.02in /  0.51mm 32 W/m2
15:19 46.7 °F /  8.2 °C 44.6 °F /  7 °C 29.70in /  1005.6hPa NNW 3.3mph /  5.3km/h 10mph /  16.1km/h 92.4% 0.02in /  0.51mm 30 W/m2
15:24 46.7 °F /  8.2 °C 44.6 °F /  7 °C 29.70in /  1005.6hPa ESE 2mph /  3.2km/h 9mph /  14.5km/h 92.4% 0.02in /  0.51mm 32 W/m2
15:29 46.3 °F /  7.9 °C 44.2 °F /  6.8 °C 29.71in /  1006hPa NNW 3.8mph /  6.1km/h 12mph /  19.3km/h 92.3% 0.02in /  0.51mm 28 W/m2
15:34 46.2 °F /  7.9 °C 44.2 °F /  6.8 °C 29.72in /  1006.3hPa NNW 3.6mph /  5.8km/h 12mph /  19.3km/h 93% 0.02in /  0.51mm 33 W/m2
15:39 46.2 °F /  7.9 °C 44.2 °F /  6.8 °C 29.72in /  1006.3hPa NW 4.3mph /  6.9km/h 9mph /  14.5km/h 93% 0.02in /  0.51mm 40 W/m2
15:44 46 °F /  7.8 °C 44.1 °F /  6.7 °C 29.72in /  1006.3hPa NW 4.5mph /  7.2km/h 13mph /  20.9km/h 93% 0.02in /  0.51mm 39 W/m2
15:49 46.1 °F /  7.8 °C 44.1 °F /  6.7 °C 29.73in /  1006.7hPa NW 2mph /  3.2km/h 7mph /  11.3km/h 93% 0.02in /  0.51mm 30 W/m2
15:54 46.1 °F /  7.8 °C 44.1 °F /  6.7 °C 29.73in /  1006.7hPa NW 4.6mph /  7.4km/h 10mph /  16.1km/h 93% 0.01in /  0.25mm 30 W/m2
15:59 46 °F /  7.8 °C 44 °F /  6.7 °C 29.74in /  1007hPa NW 3.2mph /  5.1km/h 11mph /  17.7km/h 93% 0.01in /  0.25mm 28 W/m2
16:04 45.9 °F /  7.7 °C 43.9 °F /  6.6 °C 29.74in /  1007hPa NW 2.1mph /  3.4km/h 10mph /  16.1km/h 93% 0.01in /  0.25mm 28 W/m2
16:09 45.8 °F /  7.7 °C 43.8 °F /  6.6 °C 29.75in /  1007.3hPa NNW 2.2mph /  3.5km/h 9mph /  14.5km/h 93% 0.01in /  0.25mm 23 W/m2
16:14 45.7 °F /  7.6 °C 43.7 °F /  6.5 °C 29.75in /  1007.3hPa NW 2.7mph /  4.3km/h 7mph /  11.3km/h 93% 0.01in /  0.25mm 25 W/m2
16:19 45.7 °F /  7.6 °C 43.7 °F /  6.5 °C 29.76in /  1007.7hPa NNW 4.2mph /  6.8km/h 10mph /  16.1km/h 93% 0.01in /  0.25mm 23 W/m2
16:24 45.7 °F /  7.6 °C 43.7 °F /  6.5 °C 29.76in /  1007.7hPa NW 3.2mph /  5.1km/h 10mph /  16.1km/h 93% 0.02in /  0.51mm 19 W/m2
16:29 45.7 °F /  7.6 °C 43.7 °F /  6.5 °C 29.77in /  1008hPa West 2.8mph /  4.5km/h 8mph /  12.9km/h 93% 0.02in /  0.51mm 19 W/m2
16:34 45.7 °F /  7.6 °C 43.7 °F /  6.5 °C 29.77in /  1008hPa NW 2.3mph /  3.7km/h 10mph /  16.1km/h 93% 0.02in /  0.51mm 25 W/m2
16:39 45.8 °F /  7.7 °C 43.8 °F /  6.6 °C 29.78in /  1008.4hPa NW 0.9mph /  1.4km/h 4mph /  6.4km/h 93% 0.02in /  0.51mm 25 W/m2
16:44 45.7 °F /  7.6 °C 43.7 °F /  6.5 °C 29.78in /  1008.4hPa NW 0.9mph /  1.4km/h 5mph /  8km/h 93% 0.01in /  0.25mm 18 W/m2
16:49 45.4 °F /  7.4 °C 43.4 °F /  6.3 °C 29.79in /  1008.7hPa WNW 2.1mph /  3.4km/h 7mph /  11.3km/h 93% 0.01in /  0.25mm 16 W/m2
16:54 45.2 °F /  7.3 °C 43.3 °F /  6.3 °C 29.79in /  1008.7hPa WNW 2.2mph /  3.5km/h 5mph /  8km/h 93% 0.01in /  0.25mm 18 W/m2
16:59 45.1 °F /  7.3 °C 43.2 °F /  6.2 °C 29.79in /  1008.7hPa NW 2.4mph /  3.9km/h 7mph /  11.3km/h 93% 0.01in /  0.25mm 11 W/m2
17:04 45.1 °F /  7.3 °C 43.1 °F /  6.2 °C 29.80in /  1009hPa NW 3mph /  4.8km/h 7mph /  11.3km/h 93% 0.01in /  0.25mm 14 W/m2
17:09 45 °F /  7.2 °C 43.1 °F /  6.2 °C 29.80in /  1009hPa NW 1.9mph /  3.1km/h 7mph /  11.3km/h 93% 0.01in /  0.25mm 18 W/m2
17:14 44.9 °F /  7.2 °C 42.9 °F /  6.1 °C 29.80in /  1009hPa NNW 2mph /  3.2km/h 6mph /  9.7km/h 93% 0.01in /  0.25mm 12 W/m2
17:19 45 °F /  7.2 °C 43 °F /  6.1 °C 29.79in /  1008.7hPa North 1.7mph /  2.7km/h 6mph /  9.7km/h 93% 0.01in /  0.25mm 14 W/m2
17:24 45.1 °F /  7.3 °C 43.1 °F /  6.2 °C 29.80in /  1009hPa North 1mph /  1.6km/h 4mph /  6.4km/h 93% 0.01in /  0.25mm 12 W/m2
17:29 45.1 °F /  7.3 °C 43.2 °F /  6.2 °C 29.81in /  1009.4hPa NW 1.4mph /  2.3km/h 4mph /  6.4km/h 93.2% 0.00in /  0mm 7 W/m2
17:34 45.1 °F /  7.3 °C 43.3 °F /  6.3 °C 29.82in /  1009.7hPa NW 2mph /  3.2km/h 4mph /  6.4km/h 93.4% 0.00in /  0mm 5 W/m2
17:39 45.1 °F /  7.3 °C 43.3 °F /  6.3 °C 29.82in /  1009.7hPa WNW 1.6mph /  2.6km/h 6mph /  9.7km/h 93.7% 0.00in /  0mm 5 W/m2
17:44 45.1 °F /  7.3 °C 43.4 °F /  6.3 °C 29.83in /  1010hPa NW 1.7mph /  2.7km/h 3mph /  4.8km/h 93.6% 0.00in /  0mm 0 W/m2
17:49 45.1 °F /  7.3 °C 43.5 °F /  6.4 °C 29.83in /  1010hPa WNW 3.2mph /  5.1km/h 6mph /  9.7km/h 93.8% 0.00in /  0mm 0 W/m2
17:54 45 °F /  7.2 °C 43.3 °F /  6.3 °C 29.84in /  1010.4hPa WNW 3.6mph /  5.8km/h 8mph /  12.9km/h 93.6% 0.00in /  0mm 0 W/m2
17:59 45 °F /  7.2 °C 43.2 °F /  6.2 °C 29.84in /  1010.4hPa NW 2.6mph /  4.2km/h 9mph /  14.5km/h 93.2% 0.00in /  0mm 0 W/m2
18:04 44.9 °F /  7.2 °C 42.9 °F /  6.1 °C 29.84in /  1010.4hPa NW 1.8mph /  2.9km/h 8mph /  12.9km/h 93% 0.00in /  0mm 0 W/m2
18:09 44.9 °F /  7.2 °C 42.9 °F /  6.1 °C 29.84in /  1010.4hPa NNW 2mph /  3.2km/h 8mph /  12.9km/h 93% 0.00in /  0mm 0 W/m2
18:14 44.9 °F /  7.2 °C 42.9 °F /  6.1 °C 29.85in /  1010.7hPa NW 0.8mph /  1.3km/h 7mph /  11.3km/h 93% 0.00in /  0mm 0 W/m2
18:19 44.8 °F /  7.1 °C 42.8 °F /  6 °C 29.86in /  1011.1hPa WNW 3.2mph /  5.1km/h 8mph /  12.9km/h 93% 0.00in /  0mm 0 W/m2
18:24 44.8 °F /  7.1 °C 42.8 °F /  6 °C 29.85in /  1010.7hPa WNW 0.6mph /  1km/h 5mph /  8km/h 93% 0.00in /  0mm 0 W/m2
18:29 44.7 °F /  7.1 °C 42.7 °F /  5.9 °C 29.86in /  1011.1hPa WNW 0.7mph /  1.1km/h 3mph /  4.8km/h 93% 0.00in /  0mm 0 W/m2
18:34 44.6 °F /  7 °C 42.6 °F /  5.9 °C 29.86in /  1011.1hPa WNW 0.6mph /  1km/h 3mph /  4.8km/h 93% 0.00in /  0mm 0 W/m2
18:39 44.5 °F /  6.9 °C 42.5 °F /  5.8 °C 29.87in /  1011.4hPa WNW 1.7mph /  2.7km/h 6mph /  9.7km/h 93% 0.00in /  0mm 0 W/m2
18:44 44.4 °F /  6.9 °C 42.4 °F /  5.8 °C 29.88in /  1011.7hPa WNW 1.8mph /  2.9km/h 6mph /  9.7km/h 93% 0.00in /  0mm 0 W/m2
18:49 44.4 °F /  6.9 °C 42.4 °F /  5.8 °C 29.88in /  1011.7hPa WNW 1.1mph /  1.8km/h 5mph /  8km/h 93% 0.00in /  0mm 0 W/m2
18:54 44.4 °F /  6.9 °C 42.4 °F /  5.8 °C 29.88in /  1011.7hPa WNW 1.9mph /  3.1km/h 5mph /  8km/h 93% 0.00in /  0mm 0 W/m2
18:59 44.4 °F /  6.9 °C 42.4 °F /  5.8 °C 29.88in /  1011.7hPa WNW 0.6mph /  1km/h 4mph /  6.4km/h 93% 0.00in /  0mm 0 W/m2
19:04 44.4 °F /  6.9 °C 42.4 °F /  5.8 °C 29.89in /  1012.1hPa WNW 2.4mph /  3.9km/h 7mph /  11.3km/h 93% 0.00in /  0mm 0 W/m2
19:09 44.4 °F /  6.9 °C 42.4 °F /  5.8 °C 29.90in /  1012.4hPa WNW 1.2mph /  1.9km/h 6mph /  9.7km/h 93% 0.00in /  0mm 0 W/m2
19:14 44.4 °F /  6.9 °C 42.4 °F /  5.8 °C 29.90in /  1012.4hPa WNW 0.6mph /  1km/h 4mph /  6.4km/h 93% 0.00in /  0mm 0 W/m2
19:19 44.5 °F /  6.9 °C 42.5 °F /  5.8 °C 29.91in /  1012.8hPa WNW 0.2mph /  0.3km/h 3mph /  4.8km/h 93% 0.00in /  0mm 0 W/m2
19:24 44.6 °F /  7 °C 42.6 °F /  5.9 °C 29.91in /  1012.8hPa WNW 1.4mph /  2.3km/h 5mph /  8km/h 93% 0.00in /  0mm 0 W/m2
19:29 44.4 °F /  6.9 °C 42.4 °F /  5.8 °C 29.92in /  1013.1hPa WNW 1.1mph /  1.8km/h 5mph /  8km/h 93% 0.00in /  0mm 0 W/m2
19:34 44.4 °F /  6.9 °C 42.4 °F /  5.8 °C 29.92in /  1013.1hPa WNW 0.3mph /  0.5km/h 4mph /  6.4km/h 93% 0.00in /  0mm 0 W/m2
19:39 44.4 °F /  6.9 °C 42.4 °F /  5.8 °C 29.92in /  1013.1hPa Calm   1mph /  1.6km/h 93% 0.00in /  0mm 0 W/m2
19:44 44.4 °F /  6.9 °C 42.4 °F /  5.8 °C 29.93in /  1013.4hPa Calm     93% 0.00in /  0mm 0 W/m2
19:49 44.4 °F /  6.9 °C 42.4 °F /  5.8 °C 29.93in /  1013.4hPa Calm     93% 0.00in /  0mm 0 W/m2
19:54 44.4 °F /  6.9 °C 42.4 °F /  5.8 °C 29.93in /  1013.4hPa Calm     93% 0.00in /  0mm 0 W/m2
19:59 44.3 °F /  6.8 °C 42.4 °F /  5.8 °C 29.93in /  1013.4hPa Calm     93% 0.00in /  0mm 0 W/m2
20:04 44.3 °F /  6.8 °C 42.4 °F /  5.8 °C 29.93in /  1013.4hPa Calm     93% 0.00in /  0mm 0 W/m2
20:09 44.4 °F /  6.9 °C 42.4 °F /  5.8 °C 29.93in /  1013.4hPa Calm     93% 0.00in /  0mm 0 W/m2
20:14 44.4 °F /  6.9 °C 42.4 °F /  5.8 °C 29.93in /  1013.4hPa Calm     93% 0.00in /  0mm 0 W/m2
20:19 44.4 °F /  6.9 °C 42.4 °F /  5.8 °C 29.94in /  1013.8hPa Calm     93% 0.00in /  0mm 0 W/m2
20:24 44.4 °F /  6.9 °C 42.4 °F /  5.8 °C 29.95in /  1014.1hPa Calm     93% 0.00in /  0mm 0 W/m2
20:29 44.3 °F /  6.8 °C 42.4 °F /  5.8 °C 29.95in /  1014.1hPa Calm     93% 0.00in /  0mm 0 W/m2
20:34 44.2 °F /  6.8 °C 42.3 °F /  5.7 °C 29.95in /  1014.1hPa Calm     93% 0.00in /  0mm 0 W/m2
20:39 44.2 °F /  6.8 °C 42.3 °F /  5.7 °C 29.96in /  1014.4hPa Calm     93% 0.00in /  0mm 0 W/m2
20:44 44.1 °F /  6.7 °C 42.1 °F /  5.6 °C 29.96in /  1014.4hPa Calm     93% 0.00in /  0mm 0 W/m2
20:49 44.1 °F /  6.7 °C 42.1 °F /  5.6 °C 29.96in /  1014.4hPa Calm     93% 0.00in /  0mm 0 W/m2
20:54 44.1 °F /  6.7 °C 42.1 °F /  5.6 °C 29.96in /  1014.4hPa Calm     93% 0.00in /  0mm 0 W/m2
20:59 44.1 °F /  6.7 °C 42.1 °F /  5.6 °C 29.97in /  1014.8hPa Calm     93% 0.00in /  0mm 0 W/m2
21:04 44.1 °F /  6.7 °C 42.1 °F /  5.6 °C 29.97in /  1014.8hPa Calm     93% 0.00in /  0mm 0 W/m2
21:09 44.1 °F /  6.7 °C 42.1 °F /  5.6 °C 29.97in /  1014.8hPa Calm     93% 0.00in /  0mm 0 W/m2
21:14 44.1 °F /  6.7 °C 42.1 °F /  5.6 °C 29.98in /  1015.1hPa Calm     93% 0.00in /  0mm 0 W/m2
21:19 44.1 °F /  6.7 °C 42.1 °F /  5.6 °C 29.98in /  1015.1hPa Calm     93% 0.00in /  0mm 0 W/m2
21:24 44.1 °F /  6.7 °C 42.1 °F /  5.6 °C 29.99in /  1015.5hPa Calm     93% 0.00in /  0mm 0 W/m2
21:29 44 °F /  6.7 °C 42 °F /  5.6 °C 29.99in /  1015.5hPa Calm     93% 0.00in /  0mm 0 W/m2
21:34 43.8 °F /  6.6 °C 41.8 °F /  5.4 °C 30.00in /  1015.8hPa Calm     93% 0.00in /  0mm 0 W/m2
21:39 43.7 °F /  6.5 °C 41.7 °F /  5.4 °C 30.00in /  1015.8hPa Calm     93% 0.00in /  0mm 0 W/m2
21:44 43.6 °F /  6.4 °C 41.7 °F /  5.4 °C 30.01in /  1016.1hPa Calm     93% 0.00in /  0mm 0 W/m2
21:49 43.5 °F /  6.4 °C 41.7 °F /  5.4 °C 30.00in /  1015.8hPa Calm     93% 0.00in /  0mm 0 W/m2
21:54 43.4 °F /  6.3 °C 41.6 °F /  5.3 °C 30.01in /  1016.1hPa Calm     93% 0.00in /  0mm 0 W/m2
21:59 43.3 °F /  6.3 °C 41.5 °F /  5.3 °C 30.01in /  1016.1hPa Calm     93% 0.00in /  0mm 0 W/m2
22:04 43.3 °F /  6.3 °C 41.6 °F /  5.3 °C 30.01in /  1016.1hPa Calm     93.6% 0.00in /  0mm 0 W/m2
22:09 43.2 °F /  6.2 °C 41.5 °F /  5.3 °C 30.01in /  1016.1hPa Calm     94% 0.00in /  0mm 0 W/m2
22:14 43.1 °F /  6.2 °C 41.5 °F /  5.3 °C 30.02in /  1016.5hPa Calm     94% 0.00in /  0mm 0 W/m2
22:19 43 °F /  6.1 °C 41.2 °F /  5.1 °C 30.02in /  1016.5hPa Calm     93.2% 0.00in /  0mm 0 W/m2
22:24 42.9 °F /  6.1 °C 41.1 °F /  5.1 °C 30.02in /  1016.5hPa Calm     93.2% 0.00in /  0mm 0 W/m2
22:29 42.8 °F /  6 °C 41.2 °F /  5.1 °C 30.03in /  1016.8hPa Calm     93.9% 0.00in /  0mm 0 W/m2
22:34 42.8 °F /  6 °C 41.2 °F /  5.1 °C 30.03in /  1016.8hPa Calm     94% 0.00in /  0mm 0 W/m2
22:39 42.7 °F /  5.9 °C 41.1 °F /  5.1 °C 30.03in /  1016.8hPa Calm     94% 0.00in /  0mm 0 W/m2
22:44 42.6 °F /  5.9 °C 41 °F /  5 °C 30.03in /  1016.8hPa Calm     94% 0.00in /  0mm 0 W/m2
22:49 42.6 °F /  5.9 °C 41 °F /  5 °C 30.03in /  1016.8hPa Calm     94% 0.00in /  0mm 0 W/m2
22:54 42.7 °F /  5.9 °C 41.1 °F /  5.1 °C 30.03in /  1016.8hPa Calm     94% 0.00in /  0mm 0 W/m2
22:59 42.8 °F /  6 °C 41.2 °F /  5.1 °C 30.03in /  1016.8hPa Calm     94% 0.00in /  0mm 0 W/m2
23:04 43 °F /  6.1 °C 41.4 °F /  5.2 °C 30.03in /  1016.8hPa Calm     94% 0.00in /  0mm 0 W/m2
23:09 43.1 °F /  6.2 °C 41.5 °F /  5.3 °C 30.03in /  1016.8hPa Calm     94% 0.00in /  0mm 0 W/m2
23:14 43.2 °F /  6.2 °C 41.5 °F /  5.3 °C 30.04in /  1017.2hPa Calm     94% 0.00in /  0mm 0 W/m2
23:19 43.1 °F /  6.2 °C 41.5 °F /  5.3 °C 30.04in /  1017.2hPa Calm     94% 0.00in /  0mm 0 W/m2
23:24 43 °F /  6.1 °C 41.4 °F /  5.2 °C 30.04in /  1017.2hPa Calm     94% 0.00in /  0mm 0 W/m2
23:29 43 °F /  6.1 °C 41.4 °F /  5.2 °C 30.04in /  1017.2hPa Calm     94% 0.00in /  0mm 0 W/m2
23:34 42.9 °F /  6.1 °C 41.3 °F /  5.2 °C 30.05in /  1017.5hPa Calm     94% 0.00in /  0mm 0 W/m2
23:39 42.8 °F /  6 °C 41.2 °F /  5.1 °C 30.05in /  1017.5hPa Calm     94% 0.00in /  0mm 0 W/m2
23:44 42.8 °F /  6 °C 41.2 °F /  5.1 °C 30.05in /  1017.5hPa Calm     94% 0.00in /  0mm 0 W/m2
23:49 42.8 °F /  6 °C 41.2 °F /  5.1 °C 30.06in /  1017.8hPa Calm     94% 0.00in /  0mm 0 W/m2
23:54 42.6 °F /  5.9 °C 41 °F /  5 °C 30.06in /  1017.8hPa Calm     94% 0.00in /  0mm 0 W/m2
23:59 42.6 °F /  5.9 °C 41 °F /  5 °C 30.06in /  1017.8hPa Calm     94% 0.00in /  0mm 0 W/m2
Bath Spa Weather
Compliments of Weather Underground - 2 mb